Impacts TAF Board INFO
FOR SITUATIONAL AWARENESS. NOT TO BE USED FOR FLIGHT PLANNING PURPOSES.
IDs:

KSAN - San Diego Intl Arpt, CA, US

Issued at 1722 UTC 12 Dec 2017
Updated at 1957 UTC 12 Dec 2017
Potential Impact None Slight Moderate High
Time1951Z 12/20Z 12/21Z 12/22Z 12/23Z 13/00Z 13/01Z 13/02Z 13/03Z 13/04Z 13/05Z 13/06Z 13/07Z 13/08Z>>
Type OBS PRVL PRVL PRVL PRVL PRVL PRVL PRVL PRVL PRVL PRVL PRVL PRVL PRVL
VIS 10 >6 >6 >6 >6 >6 >6 >6 >6 >6 >6 >6 >6 >6
CIG -- -- -- -- -- -- -- -- -- -- -- -- -- --
Cover CLR SKC SKC SKC SKC FEW FEW FEW FEW FEW FEW FEW FEW FEW
FltCat VFR VFR VFR VFR VFR VFR VFR VFR VFR VFR VFR VFR VFR VFR
WX -- -- -- -- -- -- -- -- -- -- -- -- -- --
WDir 310 310 310 310 310 VRB VRB VRB VRB VRB VRB VRB VRB VRB
WSpd 6 9 9 9 9 3 3 3 3 3 3 3 3 3
WGst -- -- -- -- -- -- -- -- -- -- -- -- -- --

Raw TAF
KSAN 121722Z 1218/1324 VRB03KT P6SM SKC
  FM122000 31009KT P6SM SKC
  FM130000 VRB03KT P6SM FEW250
  FM132000 30008KT P6SM FEW250


Raw METAR
KSAN 121951Z 31006KT 10SM CLR 25/M12 A3012 RMK AO2 SLP197 T02501122
KSAN 121851Z 30005KT 10SM FEW200 24/M11 A3015 RMK AO2 SLP210 T02441111
KSAN 121751Z 34004KT 10SM CLR 22/M10 A3019 RMK AO2 SLP221 T02221100 10222 20100 50001
KSAN 121651Z 33003KT 10SM FEW007 17/M07 A3020 RMK AO2 SLP225 FU FEW007 T01721072

METAR Board
Radar Display
Forecast Discussion

FOR SITUATIONAL AWARENESS. NOT TO BE USED FOR FLIGHT PLANNING PURPOSES.